Minot Air Force Base
KMIB : rendu visible

Aérodrome :











RETROUVEZ-NOUS SUR...

 
LOGIN :

S'inscrire | Disclaimer

   EN    FR    IT 

 









Légende :    VFR   VFR Marginal   IFR   IFR Intensif   IFR Très Intensif
Visi : 
Plafond : 
>= 8 km
>= 3000ft
5 à 8 km
1000 à 3000 ft
1500m à 5 km
500 à 1000 ft
800 à 1500m
200 à 500 ft
< 800m
< 200 ft
Symboles :   Orages  Brouillard  Fortes neiges  Fortes précipitations  Vent > 20 kt






- Altitude de l'aérodrome : 1667 ft


KMIB - Minot Air Force Base

DERNIER METAR :
  • 232056Z AUTO 13011KT 10SM CLR 04/M04 A2976 RMK AO2 SLP105 T00391036 57027 $

METARs EXPIRÉS :
  • 231956Z AUTO 16015G21KT 10SM CLR 05/M04 A2978 RMK AO2 SLP112 T00491041 $
  • 231856Z AUTO 14010KT 10SM CLR 03/M03 A2980 RMK AO2 SLP120 T00301029 $

TAF TAF KMIB
Valide du 23 à 17h jusqu'au 24 à 23h UTC


231700Z 2317/2423 13012G18KT 9999 FEW160 WS013/19045KT QNH2979INS
BECMG 2322/2323 13009KT 9999 SCT035 QNH2977INS
BECMG 2401/2402 VRB06KT 9999 SCT006 QNH2974INS
BECMG 2408/2409 29009KT 6000 BR BKN006 620061 QNH2980INS
BECMG 2414/2415 31012G18KT 9999 NSW BKN013 620131 QNH2980INS TX01/2321Z TNM06/2411Z
FIR KZMP / Amérique du Nord



MET'MAP, la Météo Aéronautique d'un coup d'oeil ! - Copyright ORBIFLY Décembre 2007 - Disclaimer

ORBIFLY MET'MAP TEAM :

Programmation & Développement : Alexandra Zaïnal
Sur une idée originale de : Baudouin d'Aumeries
Assistance à la programmation : Marc-Olivier Méhu
Soutien technique & logistique : Manuel Goepfert

Contact : metmap@orbifly.com




SOURCES & CREDITS :

   NOAA       Earth
Advisory